»·PEaware :: QXE2575 KPDX-KMSO

QXE2575 :: KPDX-KMSO

FLIGHT INFORMATION

Flight Status: Arrived
Operator:
Horizon Air
More flights by this operator :: More flights under this callsign
Pilot: Trevor S. (2559)
Aircraft: DEHAVILLAND DASH 8 400
(DH8D)
More flights by this aircraft type
Origin: KPDX Portland Intl
United States
Destination: KMSO Missoula Intl
United States
More flights between these airports :: More routes between these airports
Route: + / LTJ330010 NABNE
File this flight plan on PilotEdge
Remarks: Horizon Air; may experience a problem during flight (training)
Altitude:
(Current/Filed)
25,000ft
Speed:
(Current/Filed)
334kts
Departed: 29-Dec-17 09:40 PM
Arrived: 29-Dec-17 10:46 PM
Distance/Time
Traveled:
362nm/1:06
Distance/Time
To Go:
Arrived

Flight Plot

Page will automatically refresh every two minutes.

Flight plan parsing failed; only flown route is shown


Map Options




Map Legend


Flown Route
Filed Route
Departure Airport
Arrival Airport
Navaid (VOR, NDB)
Fix

Horizontal Profiles

Position Reports

Time Latitude Longitude Heading Altitude Ground
Speed
29-Dec-17 21:03 45.585965 -122.591617 47 37ft 0kts
29-Dec-17 21:04 45.585965 -122.591617 47 37ft 0kts
29-Dec-17 21:05 45.585965 -122.591617 47 37ft 0kts
29-Dec-17 21:06 45.585965 -122.591617 47 37ft 0kts
29-Dec-17 21:07 45.585965 -122.591616 47 37ft 0kts
29-Dec-17 21:08 45.585965 -122.591616 47 37ft 0kts
29-Dec-17 21:09 45.585965 -122.591616 47 37ft 0kts
29-Dec-17 21:10 45.585965 -122.591616 47 37ft 0kts
29-Dec-17 21:11 45.585965 -122.591616 47 37ft 0kts
29-Dec-17 21:12 45.585965 -122.591616 47 37ft 0kts
29-Dec-17 21:13 45.585965 -122.591616 47 37ft 0kts
29-Dec-17 21:14 45.585965 -122.591616 47 37ft 0kts
29-Dec-17 21:15 45.585965 -122.591616 47 37ft 0kts
29-Dec-17 21:16 45.585965 -122.591616 47 37ft 0kts
29-Dec-17 21:17 45.585965 -122.591616 47 37ft 0kts
29-Dec-17 21:18 45.585965 -122.591616 47 37ft 0kts
29-Dec-17 21:19 45.585965 -122.591616 47 37ft 0kts
29-Dec-17 21:20 45.585965 -122.591616 47 37ft 0kts
29-Dec-17 21:21 45.585965 -122.591616 47 37ft 0kts
29-Dec-17 21:22 45.585965 -122.591616 47 37ft 0kts
29-Dec-17 21:23 45.585965 -122.591616 47 37ft 0kts
29-Dec-17 21:24 45.585965 -122.591616 47 37ft 0kts
29-Dec-17 21:25 45.585965 -122.591616 47 37ft 0kts
29-Dec-17 21:26 45.585965 -122.591616 47 37ft 0kts
29-Dec-17 21:27 45.585965 -122.591616 47 37ft 0kts
29-Dec-17 21:28 45.585965 -122.591616 47 37ft 0kts
29-Dec-17 21:29 45.585965 -122.591616 47 37ft 0kts
29-Dec-17 21:30 45.585965 -122.591616 47 37ft 0kts
29-Dec-17 21:31 45.585965 -122.591616 47 37ft 0kts
29-Dec-17 21:32 45.585965 -122.591616 47 37ft 0kts
29-Dec-17 21:33 45.585965 -122.591616 47 37ft 0kts
29-Dec-17 21:34 45.585965 -122.591616 47 37ft 0kts
29-Dec-17 21:35 45.585965 -122.591616 47 37ft 0kts
29-Dec-17 21:36 45.585965 -122.591616 47 37ft 0kts
29-Dec-17 21:37 45.585744 -122.591955 46 37ft 2kts
29-Dec-17 21:38 45.585310 -122.592814 100 37ft 2kts
29-Dec-17 21:39 45.585390 -122.593010 132 37ft 0kts
29-Dec-17 21:40 45.585390 -122.593010 132 37ft 0kts
29-Dec-17 21:41 45.585390 -122.593010 132 37ft 0kts
29-Dec-17 21:42 45.584655 -122.591289 118 37ft 7kts
29-Dec-17 21:43 45.583681 -122.588892 120 37ft 10kts
29-Dec-17 21:44 45.582138 -122.584828 119 37ft 8kts
29-Dec-17 21:45 45.580965 -122.585028 299 37ft 12kts
29-Dec-17 21:46 45.596624 -122.623164 297 1237ft 141kts
29-Dec-17 21:47 45.620505 -122.681372 296 3394ft 180kts
29-Dec-17 21:48 45.647479 -122.745745 296 5867ft 202kts
29-Dec-17 21:49 45.701606 -122.779465 4 7904ft 267kts
29-Dec-17 21:50 45.755815 -122.703083 76 9407ft 318kts
29-Dec-17 21:51 45.756987 -122.573742 92 10681ft 330kts
29-Dec-17 21:52 45.755614 -122.438614 92 11545ft 351kts
29-Dec-17 21:53 45.752635 -122.294558 93 12762ft 346kts
29-Dec-17 21:54 45.751789 -122.166194 94 15284ft 309kts
29-Dec-17 21:55 45.749844 -122.041851 95 16778ft 316kts
29-Dec-17 21:56 45.747981 -121.911336 98 17958ft 332kts
29-Dec-17 21:57 45.758705 -121.777763 74 19195ft 344kts
29-Dec-17 21:58 45.785684 -121.644655 75 20242ft 349kts
29-Dec-17 21:59 45.810534 -121.508813 76 21179ft 353kts
29-Dec-17 22:00 45.836564 -121.369236 77 21897ft 366kts
29-Dec-17 22:01 45.862353 -121.226270 78 22717ft 371kts
29-Dec-17 22:02 45.888468 -121.082042 77 23518ft 373kts
29-Dec-17 22:03 45.912502 -120.964638 72 24120ft 367kts
29-Dec-17 22:04 45.945485 -120.823570 72 24724ft 374kts
29-Dec-17 22:05 45.978959 -120.680789 72 24974ft 389kts
29-Dec-17 22:06 46.014042 -120.530095 72 24983ft 405kts
29-Dec-17 22:07 46.050568 -120.373326 73 24894ft 422kts
29-Dec-17 22:08 46.087721 -120.211821 73 24888ft 432kts
29-Dec-17 22:09 46.125460 -120.046406 73 24887ft 438kts
29-Dec-17 22:10 46.163452 -119.879004 73 24920ft 440kts
29-Dec-17 22:11 46.200853 -119.712669 73 24925ft 441kts
29-Dec-17 22:12 46.238469 -119.544090 74 24921ft 442kts
29-Dec-17 22:13 46.276073 -119.375321 74 24922ft 441kts
29-Dec-17 22:14 46.312976 -119.206460 74 24915ft 441kts
29-Dec-17 22:15 46.350061 -119.037822 75 24924ft 439kts
29-Dec-17 22:16 46.386474 -118.869951 75 24924ft 437kts
29-Dec-17 22:17 46.422370 -118.702256 75 24925ft 435kts
29-Dec-17 22:18 46.457912 -118.534811 76 24932ft 434kts
29-Dec-17 22:19 46.492390 -118.367893 75 24881ft 430kts
29-Dec-17 22:20 46.526707 -118.202950 75 24878ft 425kts
29-Dec-17 22:21 46.560579 -118.039532 75 24878ft 421kts
29-Dec-17 22:22 46.594018 -117.876921 75 24878ft 419kts
29-Dec-17 22:23 46.627010 -117.714313 75 24895ft 420kts
29-Dec-17 22:24 46.659953 -117.550842 75 24897ft 423kts
29-Dec-17 22:25 46.692887 -117.386394 75 24898ft 423kts
29-Dec-17 22:26 46.725755 -117.221043 75 24899ft 424kts
29-Dec-17 22:27 46.758349 -117.055811 76 24899ft 425kts
29-Dec-17 22:28 46.790895 -116.889314 76 24896ft 426kts
29-Dec-17 22:29 46.823081 -116.723257 76 24898ft 425kts
29-Dec-17 22:30 46.855017 -116.557062 76 24896ft 426kts
29-Dec-17 22:31 46.886743 -116.390466 76 24896ft 426kts
29-Dec-17 22:32 46.918258 -116.223520 76 24898ft 426kts
29-Dec-17 22:33 46.948996 -116.055788 75 24906ft 427kts
29-Dec-17 22:34 46.979876 -115.887354 75 24897ft 430kts
29-Dec-17 22:35 47.010778 -115.717620 74 24843ft 433kts
29-Dec-17 22:36 47.042297 -115.543612 75 22958ft 447kts
29-Dec-17 22:37 47.074184 -115.367777 75 20512ft 439kts
29-Dec-17 22:38 47.104537 -115.197293 74 18141ft 424kts
29-Dec-17 22:39 47.133558 -115.032791 74 15896ft 407kts
29-Dec-17 22:40 47.161194 -114.875727 74 13780ft 385kts
29-Dec-17 22:41 47.187500 -114.729828 75 11756ft 350kts
29-Dec-17 22:42 47.197939 -114.598249 115 10952ft 307kts
29-Dec-17 22:43 47.144439 -114.509152 148 9965ft 276kts
29-Dec-17 22:44 47.092656 -114.438629 136 8664ft 233kts
29-Dec-17 22:45 47.062726 -114.360858 127 7864ft 214kts
29-Dec-17 22:46 47.032289 -114.290332 136 6268ft 186kts
29-Dec-17 22:47 47.002465 -114.240009 137 5624ft 156kts
29-Dec-17 22:48 46.976232 -114.195304 135 4819ft 129kts
29-Dec-17 22:49 46.953977 -114.158064 130 4102ft 113kts
29-Dec-17 22:50 46.932449 -114.120628 127 3452ft 116kts
29-Dec-17 22:51 46.916278 -114.091900 130 3212ft 43kts
29-Dec-17 22:52 46.912911 -114.084687 41 3212ft 17kts
29-Dec-17 22:53 46.915090 -114.086192 311 3212ft 10kts
29-Dec-17 22:54 46.917652 -114.085506 42 3212ft 15kts
29-Dec-17 22:55 46.918732 -114.084928 84 3212ft 0kts
29-Dec-17 22:56 46.918732 -114.084927 84 3212ft 0kts
29-Dec-17 22:57 46.918732 -114.084927 84 3212ft 0kts
29-Dec-17 22:58 46.918732 -114.084927 84 3212ft 0kts

Navigation Log

Ident Type
Flight plan parsing failed, navigation log unavailable